createdAt,value
2018-06-14T00:01:10.131Z,98.50
2018-06-14T00:03:38.818Z,99.50
2018-06-14T00:06:07.384Z,99.80
2018-06-14T00:08:36.093Z,99.90
2018-06-14T00:11:04.722Z,99.90
2018-06-14T00:13:33.286Z,99.90
2018-06-14T00:16:01.826Z,99.90
2018-06-14T00:18:30.378Z,99.90
2018-06-14T00:20:58.950Z,99.90
2018-06-14T00:23:27.571Z,99.90
2018-06-14T00:25:56.066Z,99.90
2018-06-14T00:28:24.642Z,99.90
2018-06-14T00:30:53.399Z,99.90
2018-06-14T00:33:21.977Z,99.90
2018-06-14T00:35:50.706Z,99.90
2018-06-14T00:38:19.252Z,99.90
2018-06-14T00:40:47.871Z,99.90
2018-06-14T00:43:16.534Z,99.90
2018-06-14T00:45:45.199Z,99.90
2018-06-14T00:48:13.859Z,99.90
2018-06-14T00:50:42.573Z,99.90
2018-06-14T00:53:11.155Z,99.90
2018-06-14T00:55:39.738Z,99.90
2018-06-14T00:58:08.402Z,99.90
2018-06-14T01:00:37.031Z,99.90
2018-06-14T01:03:05.664Z,99.90
2018-06-14T01:05:34.155Z,99.90
2018-06-14T01:08:02.696Z,99.90
2018-06-14T01:10:31.222Z,99.90
2018-06-14T01:13:00.019Z,99.90
2018-06-14T01:15:28.685Z,99.90
2018-06-14T01:17:57.304Z,99.90
2018-06-14T01:20:25.963Z,99.90
2018-06-14T01:22:54.531Z,99.90
2018-06-14T01:25:23.157Z,99.90
2018-06-14T01:27:51.682Z,99.90
2018-06-14T01:30:20.263Z,99.90
2018-06-14T01:32:48.836Z,99.90
2018-06-14T01:35:17.501Z,99.90
2018-06-14T01:37:57.201Z,99.90
2018-06-14T01:40:25.827Z,99.90
2018-06-14T01:42:54.408Z,99.90
2018-06-14T01:45:23.034Z,99.90
2018-06-14T01:47:51.589Z,99.90
2018-06-14T01:50:20.228Z,99.90
2018-06-14T01:52:51.670Z,99.90
2018-06-14T01:55:20.407Z,99.90
2018-06-14T01:57:48.971Z,99.90
2018-06-14T02:00:17.610Z,99.90
2018-06-14T02:02:46.188Z,99.90
2018-06-14T02:05:14.842Z,99.90
2018-06-14T02:07:43.431Z,99.90
2018-06-14T02:10:12.048Z,99.90
2018-06-14T02:12:40.615Z,99.90
2018-06-14T02:17:37.397Z,99.90
2018-06-14T02:20:06.218Z,99.90
2018-06-14T02:22:34.752Z,99.90
2018-06-14T02:25:03.459Z,99.90
2018-06-14T02:27:32.044Z,99.90
2018-06-14T02:30:00.733Z,99.90
2018-06-14T02:32:29.445Z,99.90
2018-06-14T02:34:58.061Z,99.90
2018-06-14T02:37:26.946Z,99.90
2018-06-14T02:39:55.559Z,99.90
2018-06-14T02:42:24.195Z,99.90
2018-06-14T02:44:52.810Z,99.90
2018-06-14T02:49:49.674Z,99.90
2018-06-14T02:52:18.313Z,99.90
2018-06-14T02:54:46.859Z,99.90
2018-06-14T02:57:15.509Z,99.90
2018-06-14T02:59:44.120Z,99.90
2018-06-14T03:02:12.721Z,99.90
2018-06-14T03:04:41.406Z,99.90
2018-06-14T03:07:09.990Z,99.90
2018-06-14T03:09:38.591Z,99.90
2018-06-14T03:12:07.260Z,99.90
2018-06-14T03:14:35.900Z,99.90
2018-06-14T03:17:04.510Z,99.90
2018-06-14T03:19:33.171Z,99.90
2018-06-14T03:22:01.833Z,99.90
2018-06-14T03:24:30.407Z,99.90
2018-06-14T03:26:59.038Z,99.90
2018-06-14T03:29:27.666Z,99.90
2018-06-14T03:31:56.324Z,99.90
2018-06-14T03:34:24.898Z,99.90
2018-06-14T03:36:53.485Z,99.90
2018-06-14T03:39:22.071Z,99.90
2018-06-14T03:44:18.866Z,99.90
2018-06-14T03:46:47.419Z,99.90
2018-06-14T03:49:15.963Z,99.90
2018-06-14T03:51:44.562Z,99.90
2018-06-14T03:54:13.189Z,99.90
2018-06-14T03:56:41.710Z,99.90
2018-06-14T03:59:10.319Z,99.90
2018-06-14T04:01:38.963Z,99.90
2018-06-14T04:04:10.347Z,99.90
2018-06-14T04:06:38.916Z,99.90
2018-06-14T04:09:08.795Z,99.90
2018-06-14T04:11:37.444Z,99.90
2018-06-14T04:14:06.288Z,99.90
2018-06-14T04:16:35.211Z,99.90
2018-06-14T04:19:03.849Z,99.90
2018-06-14T04:21:32.464Z,99.90
2018-06-14T04:24:01.073Z,99.90
2018-06-14T04:28:57.959Z,99.90
2018-06-14T04:31:26.600Z,99.90
2018-06-14T04:33:55.224Z,99.90
2018-06-14T04:36:23.788Z,99.90
2018-06-14T04:38:52.428Z,99.90
2018-06-14T04:41:21.059Z,99.90
2018-06-14T04:43:49.627Z,99.90
2018-06-14T04:46:18.202Z,99.90
2018-06-14T04:48:46.734Z,99.90
2018-06-14T04:51:15.344Z,99.90
2018-06-14T04:53:50.663Z,99.90
2018-06-14T04:56:19.314Z,99.90
2018-06-14T04:58:47.902Z,99.90
2018-06-14T05:01:16.500Z,99.90
2018-06-14T05:03:45.024Z,99.90
2018-06-14T05:06:13.581Z,99.90
2018-06-14T05:08:42.242Z,99.90
2018-06-14T05:11:10.858Z,99.90
2018-06-14T05:13:39.474Z,99.90
2018-06-14T05:16:08.042Z,99.90
2018-06-14T05:18:36.667Z,99.90
2018-06-14T05:21:05.316Z,99.90
2018-06-14T05:23:33.929Z,99.90
2018-06-14T05:26:02.466Z,99.90
2018-06-14T05:28:31.035Z,99.90
2018-06-14T05:30:59.536Z,99.90
2018-06-14T05:33:28.096Z,99.90
2018-06-14T05:35:56.719Z,99.90
2018-06-14T05:38:25.407Z,99.90
2018-06-14T05:40:53.949Z,99.90
2018-06-14T05:43:22.547Z,99.90
2018-06-14T05:45:51.164Z,99.90
2018-06-14T05:48:19.806Z,99.90
2018-06-14T05:50:48.354Z,99.90
2018-06-14T05:53:17.042Z,99.90
2018-06-14T05:58:13.953Z,99.30
2018-06-14T06:00:43.226Z,99.20
2018-06-14T06:03:11.895Z,99.10
2018-06-14T06:05:40.397Z,99.10
2018-06-14T06:08:09.077Z,99.10
2018-06-14T06:10:37.685Z,98.60
2018-06-14T06:13:06.307Z,98.50
2018-06-14T06:15:34.915Z,98.20
2018-06-14T06:18:03.517Z,98.00
2018-06-14T06:20:32.067Z,97.80
2018-06-14T06:23:00.728Z,96.80
2018-06-14T06:25:29.250Z,96.70
2018-06-14T06:32:54.337Z,95.80
2018-06-14T06:35:22.950Z,95.60
2018-06-14T06:37:51.895Z,95.70
2018-06-14T06:40:20.467Z,95.40
2018-06-14T06:42:49.039Z,95.60
2018-06-14T06:45:17.710Z,95.60
2018-06-14T06:50:14.521Z,95.20
2018-06-14T06:52:43.033Z,95.00
2018-06-14T06:55:11.555Z,95.00
2018-06-14T06:57:40.122Z,94.30
2018-06-14T07:00:08.736Z,93.30
2018-06-14T07:02:37.268Z,93.80
2018-06-14T07:05:05.909Z,93.20
2018-06-14T07:07:34.544Z,92.60
2018-06-14T07:10:03.122Z,92.10
2018-06-14T07:12:31.745Z,91.70
2018-06-14T07:15:00.339Z,91.70
2018-06-14T07:17:28.935Z,90.90
2018-06-14T07:19:57.483Z,90.30
2018-06-14T07:22:26.055Z,87.90
2018-06-14T07:24:54.627Z,85.90
2018-06-14T07:27:23.157Z,86.70
2018-06-14T07:29:51.773Z,87.10
2018-06-14T07:32:20.314Z,80.50
2018-06-14T07:34:48.856Z,72.60
2018-06-14T07:37:17.455Z,69.50
2018-06-14T07:39:46.111Z,68.00
2018-06-14T07:42:14.681Z,66.10
2018-06-14T07:44:43.269Z,66.30
2018-06-14T07:47:11.814Z,63.90
2018-06-14T07:49:40.414Z,61.20
2018-06-14T07:52:09.039Z,59.10
2018-06-14T07:54:37.703Z,58.10
2018-06-14T07:57:06.347Z,59.70
2018-06-14T07:59:34.912Z,59.70
2018-06-14T08:02:03.460Z,59.10
2018-06-14T08:04:32.051Z,59.80
2018-06-14T08:07:00.620Z,60.90
2018-06-14T08:09:29.243Z,60.20
2018-06-14T08:11:57.899Z,60.30
2018-06-14T08:14:26.486Z,60.90
2018-06-14T08:16:55.035Z,57.50
2018-06-14T08:19:23.546Z,55.80
2018-06-14T08:21:52.123Z,56.40
2018-06-14T08:24:20.751Z,56.10
2018-06-14T08:26:49.269Z,56.00
2018-06-14T08:29:17.948Z,56.20
2018-06-14T08:31:46.472Z,57.30
2018-06-14T08:34:15.100Z,56.80
2018-06-14T08:36:43.649Z,57.60
2018-06-14T08:39:12.304Z,57.60
2018-06-14T08:41:40.888Z,57.40
2018-06-14T08:44:09.448Z,56.80
2018-06-14T08:46:38.037Z,56.20
2018-06-14T08:49:06.746Z,56.20
2018-06-14T08:51:35.311Z,56.80
2018-06-14T08:54:03.970Z,56.30
2018-06-14T08:56:32.517Z,56.60
2018-06-14T08:59:01.090Z,54.50
2018-06-14T09:01:29.663Z,54.20
2018-06-14T09:03:58.243Z,54.20
2018-06-14T09:06:26.823Z,55.30
2018-06-14T09:08:55.447Z,55.60
2018-06-14T09:13:52.252Z,53.50
2018-06-14T09:16:20.827Z,54.40
2018-06-14T09:18:49.350Z,52.90
2018-06-14T09:21:17.868Z,51.90
2018-06-14T09:23:46.472Z,51.70
2018-06-14T09:26:15.099Z,50.80
2018-06-14T09:28:43.631Z,49.90
2018-06-14T09:31:12.242Z,51.00
2018-06-14T09:33:40.822Z,50.40
2018-06-14T09:36:09.500Z,50.00
2018-06-14T09:38:38.113Z,49.90
2018-06-14T09:41:06.743Z,50.30
2018-06-14T09:43:35.299Z,50.10
2018-06-14T09:46:03.902Z,49.50
2018-06-14T09:48:32.846Z,49.70
2018-06-14T09:51:01.384Z,48.90
2018-06-14T09:53:30.022Z,47.60
2018-06-14T09:55:58.666Z,47.50
2018-06-14T09:58:27.229Z,47.10
2018-06-14T10:00:55.793Z,48.00
2018-06-14T10:03:24.341Z,45.90
2018-06-14T10:05:52.949Z,46.60
2018-06-14T10:08:21.492Z,46.90
2018-06-14T10:10:50.130Z,47.60
2018-06-14T10:13:18.697Z,47.60
2018-06-14T10:15:47.259Z,46.70
2018-06-14T10:18:15.908Z,47.70
2018-06-14T10:20:44.512Z,47.80
2018-06-14T10:23:13.106Z,46.90
2018-06-14T10:25:41.632Z,47.00
2018-06-14T10:28:10.236Z,46.00
2018-06-14T10:30:38.865Z,47.10
2018-06-14T10:33:07.498Z,46.80
2018-06-14T10:35:36.122Z,46.90
2018-06-14T10:38:04.784Z,46.80
2018-06-14T10:40:33.411Z,47.70
2018-06-14T10:43:03.833Z,46.90
2018-06-14T10:45:33.081Z,48.10
2018-06-14T10:48:01.931Z,48.10
2018-06-14T10:50:30.528Z,46.90
2018-06-14T10:52:59.406Z,46.10
2018-06-14T10:55:28.756Z,45.90
2018-06-14T10:57:57.343Z,46.30
2018-06-14T11:00:25.936Z,47.30
2018-06-14T11:02:54.557Z,45.30
2018-06-14T11:05:23.145Z,47.10
2018-06-14T11:07:51.749Z,45.90
2018-06-14T11:10:20.383Z,45.70
2018-06-14T11:12:49.298Z,47.90
2018-06-14T11:15:17.874Z,47.20
2018-06-14T11:17:46.522Z,45.30
2018-06-14T11:20:15.110Z,46.40
2018-06-14T11:22:43.723Z,46.50
2018-06-14T11:25:12.315Z,47.60
2018-06-14T11:27:40.969Z,47.10
2018-06-14T11:30:09.596Z,47.10
2018-06-14T11:32:38.371Z,47.20
2018-06-14T11:35:07.004Z,45.50
2018-06-14T11:37:35.550Z,46.40
2018-06-14T11:40:04.174Z,47.50
2018-06-14T11:42:32.797Z,48.30
2018-06-14T11:45:01.399Z,48.00
2018-06-14T11:47:29.954Z,48.50
2018-06-14T11:49:58.593Z,47.10
2018-06-14T11:52:27.183Z,46.70
2018-06-14T11:54:55.714Z,46.10
2018-06-14T11:57:24.329Z,45.50
2018-06-14T11:59:53.824Z,45.80
2018-06-14T12:02:22.924Z,45.00
2018-06-14T12:04:52.381Z,45.60
2018-06-14T12:07:20.910Z,46.10
2018-06-14T12:09:49.550Z,46.10
2018-06-14T12:12:18.155Z,46.00
2018-06-14T12:14:47.148Z,47.20
2018-06-14T12:17:15.743Z,47.60
2018-06-14T12:19:44.372Z,48.30
2018-06-14T12:22:13.012Z,47.90
2018-06-14T12:24:41.571Z,47.90
2018-06-14T12:27:10.130Z,48.40
2018-06-14T12:29:38.762Z,48.20
2018-06-14T12:32:07.435Z,49.20
2018-06-14T12:34:36.008Z,49.30
2018-06-14T12:37:04.672Z,49.00
2018-06-14T12:39:33.225Z,49.70
2018-06-14T12:42:01.894Z,49.50
2018-06-14T12:44:30.487Z,48.50
2018-06-14T12:46:59.074Z,48.20
2018-06-14T12:49:27.700Z,49.50
2018-06-14T12:51:56.282Z,48.60
2018-06-14T12:54:24.819Z,47.50
2018-06-14T12:56:53.407Z,48.10
2018-06-14T12:59:22.055Z,47.90
2018-06-14T13:01:50.721Z,46.90
2018-06-14T13:04:19.259Z,47.50
2018-06-14T13:06:48.896Z,46.70
2018-06-14T13:09:18.076Z,45.90
2018-06-14T13:11:46.734Z,46.20
2018-06-14T13:14:16.164Z,45.00
2018-06-14T13:16:44.776Z,44.70
2018-06-14T13:19:13.362Z,44.20
2018-06-14T13:21:41.928Z,44.40
2018-06-14T13:24:10.503Z,43.90
2018-06-14T13:26:39.157Z,43.70
2018-06-14T13:29:07.744Z,44.70
2018-06-14T13:31:36.473Z,43.50
2018-06-14T13:34:05.087Z,44.50
2018-06-14T13:36:33.743Z,43.90
2018-06-14T13:39:02.371Z,44.80
2018-06-14T13:41:30.912Z,45.20
2018-06-14T13:43:59.557Z,45.70
2018-06-14T13:46:28.158Z,45.20
2018-06-14T13:48:56.902Z,44.40
2018-06-14T13:51:25.416Z,44.80
2018-06-14T13:53:54.111Z,43.70
2018-06-14T13:56:22.707Z,44.00
2018-06-14T13:58:51.292Z,43.90
2018-06-14T14:01:20.055Z,45.10
2018-06-14T14:03:48.715Z,43.90
2018-06-14T14:06:17.258Z,43.10
2018-06-14T14:08:45.899Z,43.50
2018-06-14T14:11:14.469Z,43.60
2018-06-14T14:13:43.133Z,43.30
2018-06-14T14:16:11.675Z,43.00
2018-06-14T14:18:40.315Z,43.60
2018-06-14T14:21:09.036Z,41.90
2018-06-14T14:23:37.618Z,42.60
2018-06-14T14:26:06.134Z,43.10
2018-06-14T14:28:34.766Z,43.40
2018-06-14T14:31:03.399Z,42.40
2018-06-14T14:36:00.336Z,44.30
2018-06-14T14:38:29.017Z,43.60
2018-06-14T14:40:57.640Z,43.30
2018-06-14T14:43:26.505Z,43.00
2018-06-14T14:45:55.140Z,42.70
2018-06-14T14:48:23.738Z,42.80
2018-06-14T14:50:52.355Z,43.40
2018-06-14T14:53:21.026Z,42.90
2018-06-14T14:55:49.678Z,44.00
2018-06-14T14:58:18.295Z,44.80
2018-06-14T15:00:46.820Z,44.30
2018-06-14T15:03:15.504Z,44.70
2018-06-14T15:05:44.153Z,44.30
2018-06-14T15:08:12.764Z,43.50
2018-06-14T15:10:41.403Z,44.00
2018-06-14T15:13:09.994Z,43.90
2018-06-14T15:15:38.575Z,43.50
2018-06-14T15:18:07.206Z,44.20
2018-06-14T15:20:35.866Z,44.40
2018-06-14T15:23:04.442Z,43.40
2018-06-14T15:25:33.070Z,43.50
2018-06-14T15:28:01.649Z,43.90
2018-06-14T15:30:30.349Z,44.20
2018-06-14T15:32:59.058Z,43.10
2018-06-14T15:35:27.594Z,43.20
2018-06-14T15:42:52.740Z,43.50
2018-06-14T15:45:21.300Z,44.30
2018-06-14T15:47:49.940Z,44.60
2018-06-14T15:50:18.591Z,43.50
2018-06-14T15:52:47.161Z,43.40
2018-06-14T15:55:26.962Z,43.40
2018-06-14T15:57:55.613Z,43.40
2018-06-14T16:00:24.221Z,43.10
2018-06-14T16:02:52.738Z,43.10
2018-06-14T16:05:21.350Z,44.10
2018-06-14T16:07:49.950Z,43.70
2018-06-14T16:10:18.559Z,43.70
2018-06-14T16:12:47.054Z,42.90
2018-06-14T16:15:15.653Z,42.50
2018-06-14T16:17:44.259Z,42.40
2018-06-14T16:20:12.950Z,41.50
2018-06-14T16:22:41.489Z,41.10
2018-06-14T16:25:10.072Z,40.30
2018-06-14T16:27:38.842Z,38.70
2018-06-14T16:30:07.574Z,38.10
2018-06-14T16:32:36.693Z,37.40
2018-06-14T16:35:09.339Z,36.30
2018-06-14T16:37:49.526Z,35.00
2018-06-14T16:40:18.158Z,34.80
2018-06-14T16:42:46.775Z,34.10
2018-06-14T16:45:15.387Z,35.00
2018-06-14T16:47:44.001Z,33.70
2018-06-14T16:50:12.666Z,32.70
2018-06-14T16:52:41.298Z,34.00
2018-06-14T16:55:09.854Z,33.50
2018-06-14T16:57:38.433Z,34.10
2018-06-14T17:00:07.645Z,34.10
2018-06-14T17:02:36.226Z,35.70
2018-06-14T17:05:04.972Z,35.70
2018-06-14T17:07:33.605Z,36.50
2018-06-14T17:10:02.527Z,37.40
2018-06-14T17:12:31.146Z,38.70
2018-06-14T17:14:59.841Z,37.80
2018-06-14T17:17:28.475Z,37.60
2018-06-14T17:19:57.102Z,37.30
2018-06-14T17:22:25.754Z,37.20
2018-06-14T17:24:54.334Z,37.20
2018-06-14T17:27:22.954Z,37.20
2018-06-14T17:29:52.707Z,36.80
2018-06-14T17:32:21.406Z,37.60
2018-06-14T17:34:50.158Z,38.10
2018-06-14T17:37:18.765Z,38.10
2018-06-14T17:39:47.391Z,38.50
2018-06-14T17:44:45.317Z,39.80
2018-06-14T17:47:14.017Z,40.50
2018-06-14T17:49:42.601Z,41.40
2018-06-14T17:52:11.254Z,42.00
2018-06-14T17:54:39.841Z,42.90
2018-06-14T17:57:08.418Z,43.30
2018-06-14T17:59:36.974Z,43.70
2018-06-14T18:02:05.602Z,44.80
2018-06-14T18:04:34.100Z,45.00
2018-06-14T18:07:02.729Z,45.90
2018-06-14T18:09:31.296Z,46.40
2018-06-14T18:11:59.993Z,47.80
2018-06-14T18:14:28.727Z,49.20
2018-06-14T18:16:57.421Z,50.00
2018-06-14T18:19:26.093Z,51.10
2018-06-14T18:21:54.649Z,52.00
2018-06-14T18:26:51.508Z,53.70
2018-06-14T18:29:20.111Z,54.30
2018-06-14T18:31:48.719Z,55.70
2018-06-14T18:34:17.265Z,56.40
2018-06-14T18:36:45.827Z,57.60
2018-06-14T18:39:14.424Z,57.80
2018-06-14T18:44:11.359Z,58.80
2018-06-14T18:46:39.994Z,59.40
2018-06-14T18:49:08.519Z,59.80
2018-06-14T18:51:37.165Z,60.70
2018-06-14T18:54:05.869Z,60.90
2018-06-14T18:56:34.520Z,62.10
2018-06-14T18:59:03.134Z,63.20
2018-06-14T19:01:31.692Z,63.60
2018-06-14T19:04:00.637Z,64.20
2018-06-14T19:06:29.333Z,64.50
2018-06-14T19:08:57.871Z,65.00
2018-06-14T19:11:26.616Z,66.50
2018-06-14T19:13:55.231Z,67.10
2018-06-14T19:16:23.796Z,67.50
2018-06-14T19:18:52.545Z,69.40
2018-06-14T19:21:21.321Z,70.20
2018-06-14T19:23:50.078Z,71.50
2018-06-14T19:26:18.731Z,72.70
2018-06-14T19:28:47.324Z,74.10
2018-06-14T19:31:15.899Z,75.10
2018-06-14T19:33:44.509Z,75.30
2018-06-14T19:36:13.052Z,75.70
2018-06-14T19:38:41.663Z,75.00
2018-06-14T19:41:10.296Z,75.00
2018-06-14T19:43:38.979Z,75.10
2018-06-14T19:46:07.640Z,75.90
2018-06-14T19:48:36.358Z,76.70
2018-06-14T19:51:04.920Z,76.70
2018-06-14T19:53:33.539Z,76.90
2018-06-14T19:56:02.395Z,77.70
2018-06-14T19:58:31.125Z,78.50
2018-06-14T20:00:59.697Z,78.70
2018-06-14T20:03:28.445Z,78.90
2018-06-14T20:05:57.854Z,78.70
2018-06-14T20:08:26.438Z,78.70
2018-06-14T20:10:54.965Z,79.10
2018-06-14T20:13:23.665Z,79.70
2018-06-14T20:15:52.243Z,79.70
2018-06-14T20:18:20.911Z,80.50
2018-06-14T20:20:49.668Z,81.20
2018-06-14T20:23:18.205Z,82.40
2018-06-14T20:25:46.874Z,82.80
2018-06-14T20:28:15.561Z,81.50
2018-06-14T20:30:44.104Z,83.00
2018-06-14T20:33:12.655Z,83.70
2018-06-14T20:35:41.231Z,85.40
2018-06-14T20:38:09.859Z,86.50
2018-06-14T20:40:38.495Z,87.40
2018-06-14T20:45:35.258Z,89.00
2018-06-14T20:48:03.794Z,90.10
2018-06-14T20:50:32.482Z,90.30
2018-06-14T20:53:01.079Z,90.50
2018-06-14T20:55:29.722Z,91.30
2018-06-14T20:57:58.398Z,91.30
2018-06-14T21:00:27.380Z,91.80
2018-06-14T21:02:55.957Z,91.70
2018-06-14T21:05:24.499Z,92.30
2018-06-14T21:07:53.083Z,93.00
2018-06-14T21:10:21.636Z,93.60
2018-06-14T21:12:50.215Z,93.90
2018-06-14T21:15:19.120Z,94.20
2018-06-14T21:17:47.861Z,94.70
2018-06-14T21:20:16.507Z,95.30
2018-06-14T21:22:45.100Z,96.20
2018-06-14T21:25:13.839Z,96.50
2018-06-14T21:27:42.421Z,96.80
2018-06-14T21:30:11.093Z,96.90
2018-06-14T21:32:39.770Z,97.30
2018-06-14T21:35:08.422Z,97.60
2018-06-14T21:37:37.119Z,97.80
2018-06-14T21:40:05.828Z,97.90
2018-06-14T21:42:34.472Z,98.10
2018-06-14T21:45:03.126Z,98.30
2018-06-14T21:47:32.736Z,98.50
2018-06-14T21:50:01.352Z,98.60
2018-06-14T21:52:29.939Z,98.70
2018-06-14T21:54:58.522Z,98.30
2018-06-14T21:57:27.155Z,98.50
2018-06-14T21:59:55.758Z,98.30
2018-06-14T22:02:24.376Z,98.70
2018-06-14T22:04:53.054Z,99.30
2018-06-14T22:07:21.645Z,99.20
2018-06-14T22:09:50.254Z,99.30
2018-06-14T22:12:18.858Z,99.60
2018-06-14T22:17:15.693Z,99.80
2018-06-14T22:19:44.417Z,99.70
2018-06-14T22:22:13.058Z,99.90
2018-06-14T22:24:41.613Z,99.90
2018-06-14T22:27:10.212Z,99.90
2018-06-14T22:29:38.727Z,99.90
2018-06-14T22:32:07.329Z,99.90
2018-06-14T22:34:47.234Z,99.90
2018-06-14T22:37:15.854Z,99.90
2018-06-14T22:39:44.485Z,99.90
2018-06-14T22:42:13.139Z,99.90
2018-06-14T22:44:41.762Z,99.90
2018-06-14T22:47:10.323Z,99.90
2018-06-14T22:49:38.893Z,99.90
2018-06-14T22:53:11.344Z,99.90
2018-06-14T22:55:40.026Z,99.90
2018-06-14T22:58:08.593Z,99.90
2018-06-14T23:01:43.462Z,99.90
2018-06-14T23:04:13.110Z,99.90
2018-06-14T23:06:41.673Z,99.90
2018-06-14T23:10:28.875Z,99.90
2018-06-14T23:12:57.455Z,99.90
2018-06-14T23:15:26.059Z,99.90
2018-06-14T23:17:54.798Z,99.90
2018-06-14T23:20:24.263Z,99.90
2018-06-14T23:22:53.912Z,99.90
2018-06-14T23:25:23.654Z,99.90
2018-06-14T23:27:53.467Z,99.90
2018-06-14T23:30:21.993Z,99.90
2018-06-14T23:32:50.750Z,99.90
2018-06-14T23:35:19.520Z,99.90
2018-06-14T23:40:16.380Z,99.90
2018-06-14T23:42:44.935Z,99.90
2018-06-14T23:45:13.475Z,99.90
2018-06-14T23:47:42.157Z,99.90
2018-06-14T23:50:10.673Z,99.90
2018-06-14T23:52:39.292Z,99.90
2018-06-14T23:57:36.231Z,99.90
